createdAt,value
2023-05-19T00:00:06.740Z,1.04
2023-05-19T00:01:06.895Z,1.04
2023-05-19T00:02:07.052Z,1.04
2023-05-19T00:03:07.236Z,1.04
2023-05-19T00:04:07.363Z,1.04
2023-05-19T00:05:07.485Z,1.04
2023-05-19T00:06:07.741Z,1.04
2023-05-19T00:07:07.744Z,1.04
2023-05-19T00:08:07.907Z,1.04
2023-05-19T00:09:08.045Z,1.04
2023-05-19T00:10:08.188Z,1.04
2023-05-19T00:11:08.238Z,1.04
2023-05-19T00:12:08.336Z,1.04
2023-05-19T00:13:08.537Z,1.04
2023-05-19T00:14:08.962Z,1.04
2023-05-19T00:15:08.840Z,1.04
2023-05-19T00:16:09.529Z,1.04
2023-05-19T00:17:09.059Z,1.04
2023-05-19T00:18:10.173Z,1.04
2023-05-19T00:20:09.529Z,1.04
2023-05-19T00:21:09.701Z,1.04
2023-05-19T00:22:09.790Z,1.04
2023-05-19T00:23:09.931Z,1.04
2023-05-19T00:24:10.040Z,1.04
2023-05-19T00:25:10.199Z,1.04
2023-05-19T00:26:10.331Z,1.04
2023-05-19T00:27:10.492Z,1.04
2023-05-19T00:28:10.649Z,1.04
2023-05-19T00:29:10.793Z,1.04
2023-05-19T00:30:10.938Z,1.04
2023-05-19T00:31:11.098Z,1.04
2023-05-19T00:32:11.297Z,1.04
2023-05-19T00:33:11.423Z,1.04
2023-05-19T00:34:11.542Z,1.04
2023-05-19T00:35:11.697Z,1.04
2023-05-19T00:36:11.861Z,1.04
2023-05-19T00:37:12.009Z,1.04
2023-05-19T00:38:12.189Z,1.04
2023-05-19T00:39:12.306Z,1.04
2023-05-19T00:40:12.449Z,1.04
2023-05-19T00:41:12.600Z,1.04
2023-05-19T00:42:12.764Z,1.04
2023-05-19T00:43:12.917Z,1.04
2023-05-19T00:44:13.063Z,1.04
2023-05-19T00:45:13.230Z,1.04
2023-05-19T00:46:13.487Z,1.04
2023-05-19T00:47:13.489Z,1.04
2023-05-19T00:48:13.633Z,1.04
2023-05-19T00:49:13.784Z,1.04
2023-05-19T00:50:13.931Z,1.04
2023-05-19T00:51:14.086Z,1.04
2023-05-19T00:52:14.256Z,1.04
2023-05-19T00:53:14.403Z,1.04
2023-05-19T00:54:14.534Z,1.04
2023-05-19T00:55:14.700Z,1.04
2023-05-19T00:56:14.831Z,1.04
2023-05-19T00:57:14.912Z,1.04
2023-05-19T00:58:15.056Z,1.04
2023-05-19T00:59:15.173Z,1.04
2023-05-19T01:00:15.359Z,1.04
2023-05-19T01:01:15.501Z,1.04
2023-05-19T01:02:15.554Z,1.04
2023-05-19T01:03:15.756Z,1.04
2023-05-19T01:04:15.848Z,1.04
2023-05-19T01:05:16.030Z,1.04
2023-05-19T01:06:16.150Z,1.04
2023-05-19T01:07:16.264Z,1.04
2023-05-19T01:08:16.424Z,1.04
2023-05-19T01:09:16.559Z,1.04
2023-05-19T01:10:16.708Z,1.04
2023-05-19T01:11:16.864Z,1.04
2023-05-19T01:12:17.054Z,1.04
2023-05-19T01:13:17.172Z,1.04
2023-05-19T01:14:17.353Z,1.04
2023-05-19T01:15:17.465Z,1.04
2023-05-19T01:16:17.612Z,1.04
2023-05-19T01:17:17.717Z,1.04
2023-05-19T01:18:17.822Z,1.04
2023-05-19T01:19:17.963Z,1.04
2023-05-19T01:20:18.101Z,1.04
2023-05-19T01:21:18.298Z,1.04
2023-05-19T01:22:18.389Z,1.04
2023-05-19T01:23:18.548Z,1.04
2023-05-19T01:24:18.638Z,1.04
2023-05-19T01:25:18.806Z,1.04
2023-05-19T01:26:18.945Z,1.04
2023-05-19T01:27:19.093Z,1.04
2023-05-19T01:28:19.237Z,1.04
2023-05-19T01:29:19.385Z,1.04
2023-05-19T01:30:19.532Z,1.04
2023-05-19T01:31:19.699Z,1.04
2023-05-19T01:32:19.748Z,1.04
2023-05-19T01:33:19.901Z,1.04
2023-05-19T01:34:20.051Z,1.04
2023-05-19T01:35:20.228Z,1.04
2023-05-19T01:36:20.316Z,1.04
2023-05-19T01:37:20.452Z,1.04
2023-05-19T01:38:20.570Z,1.04
2023-05-19T01:39:20.785Z,1.04
2023-05-19T01:40:20.869Z,1.04
2023-05-19T01:41:21.002Z,1.04
2023-05-19T01:42:21.078Z,1.04
2023-05-19T01:43:21.221Z,1.04
2023-05-19T01:44:21.371Z,1.04
2023-05-19T01:45:21.497Z,1.04
2023-05-19T01:46:21.658Z,1.04
2023-05-19T01:47:21.748Z,1.04
2023-05-19T01:48:21.890Z,1.04
2023-05-19T01:49:22.040Z,1.04
2023-05-19T01:50:22.155Z,1.04
2023-05-19T01:51:22.310Z,1.04
2023-05-19T01:52:22.447Z,1.04
2023-05-19T01:53:22.584Z,1.04
2023-05-19T01:54:22.742Z,1.04
2023-05-19T01:55:22.902Z,1.04
2023-05-19T01:56:23.056Z,1.04
2023-05-19T01:57:23.191Z,1.04
2023-05-19T01:58:23.338Z,1.04
2023-05-19T01:59:23.531Z,1.04
2023-05-19T02:00:23.607Z,1.04
2023-05-19T02:01:23.804Z,1.04
2023-05-19T02:02:23.962Z,1.04
2023-05-19T02:03:24.077Z,1.04
2023-05-19T02:04:24.210Z,1.04
2023-05-19T02:05:24.310Z,1.04
2023-05-19T02:06:24.433Z,1.04
2023-05-19T02:07:24.515Z,1.04
2023-05-19T02:08:24.727Z,1.04
2023-05-19T02:09:25.168Z,1.04
2023-05-19T02:10:24.917Z,1.04
2023-05-19T02:11:25.071Z,1.04
2023-05-19T02:12:25.212Z,1.04
2023-05-19T02:13:25.375Z,1.04
2023-05-19T02:14:25.523Z,1.04
2023-05-19T02:15:25.657Z,1.04
2023-05-19T02:16:25.793Z,1.04
2023-05-19T02:17:25.882Z,1.04
2023-05-19T02:18:26.029Z,1.04
2023-05-19T02:19:26.253Z,1.04
2023-05-19T02:20:26.284Z,1.04
2023-05-19T02:21:26.472Z,1.04
2023-05-19T02:22:26.533Z,1.04
2023-05-19T02:23:26.680Z,1.04
2023-05-19T02:24:26.775Z,1.04
2023-05-19T02:25:26.960Z,1.04
2023-05-19T02:26:27.079Z,1.04
2023-05-19T02:27:27.238Z,1.04
2023-05-19T02:28:27.391Z,1.04
2023-05-19T02:29:27.560Z,1.04
2023-05-19T02:30:27.654Z,1.04
2023-05-19T02:31:27.816Z,1.04
2023-05-19T02:32:27.994Z,2
2023-05-19T02:33:28.139Z,2
2023-05-19T02:34:28.341Z,2
2023-05-19T02:35:28.351Z,2
2023-05-19T02:36:28.451Z,2
2023-05-19T02:37:28.719Z,3.04
2023-05-19T02:38:28.705Z,3.04
2023-05-19T02:39:28.873Z,3.04
2023-05-19T02:40:29.008Z,4
2023-05-19T02:41:29.172Z,4
2023-05-19T02:42:29.342Z,5.04
2023-05-19T02:43:29.461Z,5.04
2023-05-19T02:44:29.575Z,6
2023-05-19T02:45:29.729Z,7.04
2023-05-19T02:46:29.884Z,8
2023-05-19T02:47:30.021Z,9.04
2023-05-19T02:48:30.109Z,10
2023-05-19T02:49:30.292Z,12
2023-05-19T02:50:30.532Z,14
2023-05-19T02:51:30.533Z,16
2023-05-19T02:52:30.689Z,19.04
2023-05-19T02:53:30.787Z,22
2023-05-19T02:54:30.929Z,26
2023-05-19T02:55:31.097Z,30
2023-05-19T02:56:31.223Z,34
2023-05-19T02:57:31.355Z,40
2023-05-19T02:58:31.526Z,45.04
2023-05-19T02:59:31.691Z,51.04
2023-05-19T03:00:32.012Z,57.04
2023-05-19T03:01:31.984Z,65.04
2023-05-19T03:02:32.114Z,72
2023-05-19T03:03:32.176Z,81.04
2023-05-19T03:04:32.282Z,89.04
2023-05-19T03:05:32.435Z,99.04
2023-05-19T03:06:32.552Z,110
2023-05-19T03:07:32.731Z,120
2023-05-19T03:08:32.803Z,131.04
2023-05-19T03:09:32.984Z,146
2023-05-19T03:10:33.329Z,160
2023-05-19T03:11:33.219Z,178.08
2023-05-19T03:12:33.383Z,193.12
2023-05-19T03:13:33.555Z,208
2023-05-19T03:14:33.717Z,228
2023-05-19T03:15:33.790Z,244
2023-05-19T03:16:33.915Z,258.08
2023-05-19T03:17:34.076Z,279.04
2023-05-19T03:18:34.115Z,298.08
2023-05-19T03:19:34.275Z,319.04
2023-05-19T03:20:34.539Z,338.24
2023-05-19T03:21:34.578Z,358.08
2023-05-19T03:22:34.754Z,379.2
2023-05-19T03:23:34.886Z,406.08
2023-05-19T03:24:35.027Z,430.08
2023-05-19T03:25:35.183Z,456
2023-05-19T03:26:35.365Z,490.24
2023-05-19T03:27:35.506Z,520
2023-05-19T03:28:35.651Z,549.12
2023-05-19T03:29:35.799Z,586.24
2023-05-19T03:30:36.000Z,619.2
2023-05-19T03:31:36.099Z,652.16
2023-05-19T03:32:36.352Z,682.24
2023-05-19T03:33:36.441Z,717.44
2023-05-19T03:34:36.559Z,759.04
2023-05-19T03:35:36.723Z,796.16
2023-05-19T03:36:36.856Z,830.08
2023-05-19T03:37:37.020Z,866.56
2023-05-19T03:38:37.166Z,915.2
2023-05-19T03:39:37.281Z,957.44
2023-05-19T03:40:37.433Z,1004.16
2023-05-19T03:41:37.616Z,1053.44
2023-05-19T03:42:37.709Z,1123.2
2023-05-19T03:43:37.892Z,1179.52
2023-05-19T03:44:37.986Z,1243.52
2023-05-19T03:45:38.165Z,1285.12
2023-05-19T03:46:38.236Z,1423.36
2023-05-19T03:47:38.390Z,1495.04
2023-05-19T03:48:38.529Z,1556.48
2023-05-19T03:49:38.695Z,1614.08
2023-05-19T03:50:38.904Z,1678.08
2023-05-19T03:51:38.944Z,1749.76
2023-05-19T03:52:39.086Z,1804.8
2023-05-19T03:53:39.232Z,1863.68
2023-05-19T03:54:39.390Z,1922.56
2023-05-19T03:55:39.549Z,1987.84
2023-05-19T03:56:39.723Z,2058.24
2023-05-19T03:57:39.812Z,2108.16
2023-05-19T03:58:39.962Z,2159.36
2023-05-19T03:59:40.096Z,2215.68
2023-05-19T04:00:40.237Z,2278.4
2023-05-19T04:01:40.344Z,2315.52
2023-05-19T04:02:40.525Z,2355.2
2023-05-19T04:03:40.647Z,2389.76
2023-05-19T04:04:40.818Z,2449.92
2023-05-19T04:05:40.920Z,2520.32
2023-05-19T04:06:41.050Z,2639.36
2023-05-19T04:07:41.189Z,2723.84
2023-05-19T04:08:41.315Z,2849.28
2023-05-19T04:09:41.527Z,2961.92
2023-05-19T04:10:41.615Z,3082.24
2023-05-19T04:11:41.787Z,3225.6
2023-05-19T04:12:41.938Z,3407.36
2023-05-19T04:13:42.077Z,3560.96
2023-05-19T04:14:42.223Z,3824.64
2023-05-19T04:15:42.369Z,3911.68
2023-05-19T04:16:42.494Z,4234.24
2023-05-19T04:17:42.638Z,4300.8
2023-05-19T04:18:42.829Z,4490.24
2023-05-19T04:19:42.884Z,4756.48
2023-05-19T04:20:43.038Z,4974.08
2023-05-19T04:21:43.186Z,5186.56
2023-05-19T04:22:43.276Z,5447.68
2023-05-19T04:23:43.382Z,5621.76
2023-05-19T04:24:43.539Z,5857.28
2023-05-19T04:25:43.669Z,6026.24
2023-05-19T04:26:43.833Z,6154.24
2023-05-19T04:27:43.997Z,6318.08
2023-05-19T04:28:44.124Z,6420.48
2023-05-19T04:29:44.264Z,6522.88
2023-05-19T04:30:44.400Z,6640.64
2023-05-19T04:31:44.578Z,6840.32
2023-05-19T04:32:44.818Z,7009.28
2023-05-19T04:33:44.858Z,7219.2
2023-05-19T04:34:44.935Z,7429.12
2023-05-19T04:35:45.106Z,7603.2
2023-05-19T04:36:45.260Z,7772.16
2023-05-19T04:37:45.398Z,7976.96
2023-05-19T04:38:45.562Z,8120.32
2023-05-19T04:39:45.755Z,8212.48
2023-05-19T04:40:45.798Z,8299.52
2023-05-19T04:41:45.898Z,8355.84
2023-05-19T04:42:46.208Z,8360.96
2023-05-19T04:43:46.236Z,8417.28
2023-05-19T04:44:46.371Z,8893.439
2023-05-19T04:45:46.477Z,8970.24
2023-05-19T04:46:46.645Z,8878.08
2023-05-19T04:47:46.789Z,9656.319
2023-05-19T04:48:46.960Z,9799.68
2023-05-19T04:49:47.026Z,9026.56
2023-05-19T04:50:47.180Z,9062.399
2023-05-19T04:51:47.319Z,10598.399
2023-05-19T04:52:47.471Z,8867.84
2023-05-19T04:53:47.622Z,8739.84
2023-05-19T04:54:47.772Z,8770.56
2023-05-19T04:55:47.887Z,8765.439
2023-05-19T04:56:48.029Z,8704
2023-05-19T04:57:48.186Z,8606.72
2023-05-19T04:58:48.362Z,8555.52
2023-05-19T04:59:48.490Z,8499.2
2023-05-19T05:00:48.651Z,8494.08
2023-05-19T05:01:48.864Z,8494.08
2023-05-19T05:02:49.005Z,8494.08
2023-05-19T05:03:49.065Z,8529.92
2023-05-19T05:04:49.190Z,8622.08
2023-05-19T05:05:49.339Z,8734.72
2023-05-19T05:06:49.503Z,8898.56
2023-05-19T05:07:49.644Z,8960
2023-05-19T05:08:49.799Z,9016.319
2023-05-19T05:09:49.951Z,9047.04
2023-05-19T05:10:50.106Z,9082.88
2023-05-19T05:11:50.257Z,9185.28
2023-05-19T05:12:50.424Z,9431.04
2023-05-19T05:13:50.565Z,9651.2
2023-05-19T05:14:50.700Z,9912.319
2023-05-19T05:15:50.846Z,10091.52
2023-05-19T05:16:51.051Z,10234.88
2023-05-19T05:17:51.118Z,10378.24
2023-05-19T05:18:51.288Z,10480.64
2023-05-19T05:19:51.379Z,10516.479
2023-05-19T05:20:51.536Z,10444.8
2023-05-19T05:21:52.270Z,10327.04
2023-05-19T05:22:51.828Z,10122.24
2023-05-19T05:23:52.002Z,9999.359
2023-05-19T05:24:52.096Z,9871.359
2023-05-19T05:25:52.229Z,9815.04
2023-05-19T05:26:52.337Z,9861.12
2023-05-19T05:27:52.489Z,9912.319
2023-05-19T05:28:52.610Z,10071.04
2023-05-19T05:29:52.736Z,10316.8
2023-05-19T05:30:52.900Z,10752
2023-05-19T05:31:53.057Z,11571.2
2023-05-19T05:32:53.347Z,11417.6
2023-05-19T05:33:53.335Z,11642.88
2023-05-19T05:34:53.529Z,11868.16
2023-05-19T05:35:53.647Z,12154.88
2023-05-19T05:36:53.813Z,12318.72
2023-05-19T05:37:53.972Z,12472.319
2023-05-19T05:38:54.106Z,12728.319
2023-05-19T05:39:54.263Z,12963.84
2023-05-19T05:40:54.374Z,13854.72
2023-05-19T05:41:54.511Z,13772.8
2023-05-19T05:42:54.659Z,13711.359
2023-05-19T05:43:54.815Z,13629.439
2023-05-19T05:44:54.958Z,13445.12
2023-05-19T05:45:55.648Z,13301.76
2023-05-19T05:47:55.682Z,13250.56
2023-05-19T05:48:55.552Z,13424.64
2023-05-19T05:49:55.976Z,15073.279
2023-05-19T05:50:55.827Z,13209.6
2023-05-19T05:52:05.455Z,13137.92
2023-05-19T05:52:56.096Z,13271.04
2023-05-19T05:53:56.214Z,13588.479
2023-05-19T05:54:56.329Z,13793.279
2023-05-19T05:55:56.499Z,14090.239
2023-05-19T05:56:56.638Z,14141.439
2023-05-19T05:57:56.800Z,14151.68
2023-05-19T05:58:56.946Z,14305.279
2023-05-19T05:59:57.090Z,14407.68
2023-05-19T06:00:57.263Z,14397.439
2023-05-19T06:01:57.388Z,14120.96
2023-05-19T06:02:57.601Z,13834.239
2023-05-19T06:03:57.666Z,13506.56
2023-05-19T06:04:57.776Z,13363.199
2023-05-19T06:05:58.006Z,13189.12
2023-05-19T06:06:58.046Z,13025.279
2023-05-19T06:07:58.223Z,12851.2
2023-05-19T06:08:58.371Z,12779.52
2023-05-19T06:09:58.527Z,12779.52
2023-05-19T06:10:58.690Z,12421.12
2023-05-19T06:11:58.816Z,12277.76
2023-05-19T06:12:58.910Z,12267.52
2023-05-19T06:13:59.065Z,12339.2
2023-05-19T06:14:59.217Z,12421.12
2023-05-19T06:16:01.811Z,12554.239
2023-05-19T06:16:59.533Z,12697.6
2023-05-19T06:17:59.743Z,12738.56
2023-05-19T06:18:59.849Z,12789.76
2023-05-19T06:19:59.927Z,12851.2
2023-05-19T06:21:00.061Z,12974.08
2023-05-19T06:22:00.213Z,13240.319
2023-05-19T06:23:00.286Z,13486.08
2023-05-19T06:24:00.442Z,13803.52
2023-05-19T06:25:00.618Z,14428.16
2023-05-19T06:26:00.734Z,15237.12
2023-05-19T06:27:00.903Z,15134.72
2023-05-19T06:28:01.051Z,15411.199
2023-05-19T06:29:01.187Z,15943.68
2023-05-19T06:30:01.346Z,17408
2023-05-19T06:31:01.510Z,19138.56
2023-05-19T06:32:01.642Z,21258.24
2023-05-19T06:33:01.850Z,23019.52
2023-05-19T06:34:01.960Z,24494.08
2023-05-19T06:35:02.116Z,25722.88
2023-05-19T06:36:02.261Z,26828.8
2023-05-19T06:37:02.587Z,26828.8
2023-05-19T06:38:02.561Z,26030.08
2023-05-19T06:39:02.915Z,25845.76
2023-05-19T06:40:02.859Z,25825.28
2023-05-19T06:41:03.027Z,25538.56
2023-05-19T06:42:03.181Z,25538.56
2023-05-19T06:43:03.313Z,25088
2023-05-19T06:44:03.459Z,24453.12
2023-05-19T06:45:03.624Z,24268.8
2023-05-19T06:46:03.798Z,24719.36
2023-05-19T06:47:03.954Z,24535.04
2023-05-19T06:48:04.055Z,24924.16
2023-05-19T06:49:04.231Z,25907.2
2023-05-19T06:50:04.275Z,26685.44
2023-05-19T06:51:04.431Z,27525.12
2023-05-19T06:52:04.583Z,27996.16
2023-05-19T06:53:04.746Z,28221.44
2023-05-19T06:54:04.895Z,28037.12
2023-05-19T06:55:05.041Z,27688.96
2023-05-19T06:56:05.139Z,27525.12
2023-05-19T06:57:05.278Z,27566.08
2023-05-19T06:58:05.439Z,27607.04
2023-05-19T06:59:05.592Z,28057.6
2023-05-19T07:00:05.678Z,28938.24
2023-05-19T07:01:05.822Z,28999.68
2023-05-19T07:02:06.035Z,29040.64
2023-05-19T07:03:06.158Z,29020.16
2023-05-19T07:04:06.577Z,28815.36
2023-05-19T07:05:06.439Z,28282.88
2023-05-19T07:06:08.015Z,28078.08
2023-05-19T07:07:06.740Z,28160
2023-05-19T07:08:06.885Z,28528.64
2023-05-19T07:09:07.067Z,29040.64
2023-05-19T07:10:07.174Z,30085.12
2023-05-19T07:11:07.329Z,30556.16
2023-05-19T07:12:07.473Z,31580.16
2023-05-19T07:13:07.620Z,32522.24
2023-05-19T07:14:07.737Z,33382.4
2023-05-19T07:15:07.870Z,34283.52
2023-05-19T07:16:08.082Z,36372.48
2023-05-19T07:17:08.125Z,46080
2023-05-19T07:18:08.296Z,41984
2023-05-19T07:19:08.473Z,51363.84
2023-05-19T07:20:08.578Z,54763.52
2023-05-19T07:21:08.744Z,65945.6
2023-05-19T07:22:08.855Z,87900.16
2023-05-19T07:23:08.981Z,91668.48
2023-05-19T07:24:09.146Z,70778.88
2023-05-19T07:25:09.289Z,55091.2
2023-05-19T07:26:09.440Z,87408.64
2023-05-19T07:27:09.606Z,85524.48
2023-05-19T07:28:09.749Z,83886.08
2023-05-19T07:29:09.848Z,83435.52
2023-05-19T07:30:09.947Z,81510.4
2023-05-19T07:31:10.129Z,79257.6
2023-05-19T07:32:10.257Z,79380.48
2023-05-19T07:33:10.510Z,81633.28
2023-05-19T07:34:10.506Z,72458.24
2023-05-19T07:35:10.666Z,67788.8
2023-05-19T07:36:10.812Z,58204.16
2023-05-19T07:37:10.911Z,56975.36
2023-05-19T07:38:11.061Z,67993.6
2023-05-19T07:39:11.349Z,52961.28
2023-05-19T07:40:11.364Z,72048.64
2023-05-19T07:41:11.526Z,58327.04
2023-05-19T07:42:11.668Z,73277.44
2023-05-19T07:43:11.811Z,58900.48
2023-05-19T07:44:11.922Z,48783.36
2023-05-19T07:45:12.061Z,75120.64
2023-05-19T07:46:12.239Z,66478.08
2023-05-19T07:47:12.377Z,68689.92
2023-05-19T07:48:12.594Z,43786.24
2023-05-19T07:49:12.674Z,90193.92
2023-05-19T07:50:12.835Z,84131.84
2023-05-19T07:51:12.981Z,93306.88
2023-05-19T07:52:13.140Z,92078.08
2023-05-19T07:53:13.276Z,91422.72
2023-05-19T07:54:13.372Z,92569.6
2023-05-19T07:55:13.556Z,92651.52
2023-05-19T07:56:13.693Z,93962.23
2023-05-19T07:57:13.841Z,92405.76
2023-05-19T07:58:13.985Z,69386.24
2023-05-19T07:59:14.088Z,64716.8
2023-05-19T08:00:14.236Z,81960.96
2023-05-19T08:01:14.369Z,72826.88
2023-05-19T08:02:14.512Z,83476.48
2023-05-19T08:03:14.754Z,68526.08
2023-05-19T08:04:14.779Z,67870.72
2023-05-19T08:05:14.859Z,54968.32
2023-05-19T08:06:15.001Z,87080.96
2023-05-19T08:07:15.149Z,75120.64
2023-05-19T08:08:15.294Z,87572.48
2023-05-19T08:09:15.450Z,95109.12
2023-05-19T08:10:15.555Z,96010.23
2023-05-19T08:11:15.708Z,97157.12
2023-05-19T08:12:15.869Z,76840.96
2023-05-19T08:13:16.016Z,83640.32
2023-05-19T08:14:16.168Z,83681.28
2023-05-19T08:15:16.327Z,88555.52
2023-05-19T08:16:16.542Z,93061.12
2023-05-19T08:17:16.585Z,94044.16
2023-05-19T08:18:16.726Z,88637.44
2023-05-19T08:19:16.907Z,84049.92
2023-05-19T08:20:16.991Z,91340.8
2023-05-19T08:21:17.131Z,93634.55
2023-05-19T08:22:17.289Z,93306.88
2023-05-19T08:23:17.441Z,95682.55
2023-05-19T08:24:17.579Z,94617.6
2023-05-19T08:25:17.738Z,94699.52
2023-05-19T08:26:17.902Z,93634.55
2023-05-19T08:27:18.047Z,93470.72
2023-05-19T08:28:18.185Z,93880.32
2023-05-19T08:29:18.339Z,95109.12
2023-05-19T08:30:18.515Z,95846.4
2023-05-19T08:31:18.686Z,96747.52
2023-05-19T08:32:18.801Z,101744.64
2023-05-19T08:33:18.955Z,81797.12
2023-05-19T08:34:19.118Z,75694.08
2023-05-19T08:35:19.260Z,67502.08
2023-05-19T08:36:19.404Z,62095.36
2023-05-19T08:37:19.553Z,59678.72
2023-05-19T08:38:19.699Z,65740.8
2023-05-19T08:39:19.865Z,55009.28
2023-05-19T08:40:20.000Z,47964.16
2023-05-19T08:41:20.164Z,45670.4
2023-05-19T08:42:20.329Z,41902.08
2023-05-19T08:43:20.461Z,37867.52
2023-05-19T08:44:20.614Z,31150.08
2023-05-19T08:45:20.767Z,33116.16
2023-05-19T08:46:20.979Z,39976.96
2023-05-19T08:47:21.087Z,64102.4
2023-05-19T08:48:21.226Z,59760.64
2023-05-19T08:49:22.217Z,53125.12
2023-05-19T08:50:21.431Z,52879.36
2023-05-19T08:51:21.548Z,52428.8
2023-05-19T08:52:21.683Z,54067.2
2023-05-19T08:53:32.986Z,59760.64
2023-05-19T08:54:21.980Z,55746.56
2023-05-19T08:55:22.091Z,67461.12
2023-05-19T08:56:22.244Z,72540.16
2023-05-19T08:57:22.408Z,58245.12
2023-05-19T08:58:22.543Z,59310.08
2023-05-19T08:59:22.696Z,72294.4
2023-05-19T09:00:22.957Z,77578.24
2023-05-19T09:01:23.037Z,94535.68
2023-05-19T09:02:23.163Z,111575.04
2023-05-19T09:03:23.826Z,110510.08
2023-05-19T09:04:23.452Z,109445.12
2023-05-19T09:05:23.568Z,106987.52
2023-05-19T09:06:23.642Z,104284.16
2023-05-19T09:07:23.812Z,105021.44
2023-05-19T09:08:23.928Z,102400
2023-05-19T09:09:24.066Z,104366.08
2023-05-19T09:10:24.193Z,100515.84
2023-05-19T09:11:24.358Z,98631.68
2023-05-19T09:12:24.535Z,97402.88
2023-05-19T09:13:24.657Z,99368.96
2023-05-19T09:14:24.822Z,103055.36
2023-05-19T09:15:24.975Z,97812.48
2023-05-19T09:16:25.957Z,105840.64
2023-05-19T09:17:25.362Z,103301.12
2023-05-19T09:18:25.371Z,85442.55
2023-05-19T09:19:25.626Z,104038.4
2023-05-19T09:20:25.676Z,100679.68
2023-05-19T09:21:25.864Z,99532.8
2023-05-19T09:22:26.008Z,101826.55
2023-05-19T09:23:26.127Z,94208
2023-05-19T09:24:26.302Z,92160
2023-05-19T09:25:26.453Z,98140.16
2023-05-19T09:26:26.537Z,111493.12
2023-05-19T09:27:26.675Z,104366.08
2023-05-19T09:28:26.857Z,110100.48
2023-05-19T09:29:26.999Z,111575.04
2023-05-19T09:30:27.150Z,113868.8
2023-05-19T09:31:27.273Z,62914.56
2023-05-19T09:32:27.586Z,71884.8
2023-05-19T09:33:27.547Z,115425.28
2023-05-19T09:34:27.731Z,114851.84
2023-05-19T09:35:27.818Z,112558.08
2023-05-19T09:36:27.937Z,96829.44
2023-05-19T09:37:28.116Z,112312.32
2023-05-19T09:38:28.198Z,85196.8
2023-05-19T09:39:28.370Z,113623.04
2023-05-19T09:40:28.513Z,105103.36
2023-05-19T09:41:28.676Z,89292.8
2023-05-19T09:42:28.822Z,56074.24
2023-05-19T09:43:28.978Z,94863.36
2023-05-19T09:44:29.108Z,59719.68
2023-05-19T09:45:29.282Z,108380.16
2023-05-19T09:46:29.469Z,91422.72
2023-05-19T09:47:29.600Z,108871.68
2023-05-19T09:48:29.699Z,108707.84
2023-05-19T09:49:29.810Z,108298.23
2023-05-19T09:50:29.944Z,105594.88
2023-05-19T09:51:30.045Z,100352
2023-05-19T09:52:30.167Z,99123.2
2023-05-19T09:53:30.333Z,102481.91
2023-05-19T09:54:30.494Z,101826.55
2023-05-19T09:55:31.078Z,106004.48
2023-05-19T09:56:30.774Z,101335.04
2023-05-19T09:57:30.889Z,100679.68
2023-05-19T09:58:31.040Z,99860.48
2023-05-19T09:59:33.202Z,100024.32
2023-05-19T10:00:31.456Z,103956.48
2023-05-19T10:01:31.446Z,103055.36
2023-05-19T10:02:31.545Z,100597.76
2023-05-19T10:03:31.701Z,101580.8
2023-05-19T10:04:31.960Z,102318.08
2023-05-19T10:05:32.196Z,103137.28
2023-05-19T10:06:32.151Z,104202.23
2023-05-19T10:07:32.300Z,103792.64
2023-05-19T10:08:32.450Z,104284.16
2023-05-19T10:09:32.603Z,105676.8
2023-05-19T10:10:32.691Z,106086.4
2023-05-19T10:11:32.844Z,104857.59
2023-05-19T10:12:32.967Z,104611.84
2023-05-19T10:13:33.096Z,103383.04
2023-05-19T10:14:33.276Z,101990.4
2023-05-19T10:15:38.485Z,101416.96
2023-05-19T10:16:33.576Z,101498.88
2023-05-19T10:17:33.701Z,100106.23
2023-05-19T10:18:33.778Z,100270.08
2023-05-19T10:19:33.967Z,100597.76
2023-05-19T10:20:34.325Z,101744.64
2023-05-19T10:21:34.223Z,103628.8
2023-05-19T10:22:34.375Z,105431.04
2023-05-19T10:23:34.485Z,106250.23
2023-05-19T10:24:34.628Z,104038.4
2023-05-19T10:25:34.932Z,105840.64
2023-05-19T10:26:34.938Z,106086.4
2023-05-19T10:27:35.086Z,106577.91
2023-05-19T10:28:35.228Z,108216.32
2023-05-19T10:29:35.383Z,108544
2023-05-19T10:30:35.532Z,109854.72
2023-05-19T10:31:35.717Z,110592
2023-05-19T10:32:35.835Z,102154.23
2023-05-19T10:33:35.944Z,111247.36
2023-05-19T10:34:36.098Z,104366.08
2023-05-19T10:35:36.370Z,107479.04
2023-05-19T10:36:36.397Z,103792.64
2023-05-19T10:37:36.592Z,92160
2023-05-19T10:38:36.707Z,91750.4
2023-05-19T10:39:36.802Z,86507.52
2023-05-19T10:40:36.953Z,94126.08
2023-05-19T10:41:37.107Z,109772.8
2023-05-19T10:42:37.268Z,94863.36
2023-05-19T10:43:37.417Z,84049.92
2023-05-19T10:44:37.570Z,96993.28
2023-05-19T10:45:37.715Z,100270.08
2023-05-19T10:46:37.904Z,108462.08
2023-05-19T10:47:37.970Z,108380.16
2023-05-19T10:48:38.085Z,31559.68
2023-05-19T10:49:38.241Z,101007.36
2023-05-19T10:50:38.378Z,101007.36
2023-05-19T10:51:38.511Z,106250.23
2023-05-19T10:52:38.620Z,95354.88
2023-05-19T10:53:38.777Z,82452.48
2023-05-19T10:54:38.932Z,40120.32
2023-05-19T10:55:39.083Z,28221.44
2023-05-19T10:56:39.237Z,23224.32
2023-05-19T10:57:39.397Z,24350.72
2023-05-19T10:58:39.495Z,107970.55
2023-05-19T10:59:39.671Z,98222.08
2023-05-19T11:00:39.743Z,87654.4
2023-05-19T11:01:39.943Z,93798.4
2023-05-19T11:02:40.138Z,109608.96
2023-05-19T11:03:42.697Z,116736
2023-05-19T11:04:40.350Z,111493.12
2023-05-19T11:05:40.513Z,112476.16
2023-05-19T11:06:40.668Z,119930.88
2023-05-19T11:07:40.806Z,47841.28
2023-05-19T11:08:40.962Z,122142.72
2023-05-19T11:09:41.217Z,41287.68
2023-05-19T11:10:41.276Z,81100.8
2023-05-19T11:11:41.413Z,119111.68
2023-05-19T11:12:41.568Z,115834.88
2023-05-19T11:13:41.663Z,93061.12
2023-05-19T11:14:41.764Z,78110.72
2023-05-19T11:15:41.870Z,79175.68
2023-05-19T11:16:42.124Z,95109.12
2023-05-19T11:17:42.190Z,96911.36
2023-05-19T11:18:42.381Z,103546.88
2023-05-19T11:19:42.486Z,101253.12
2023-05-19T11:20:42.683Z,114360.32
2023-05-19T11:21:42.744Z,112885.76
2023-05-19T11:22:42.879Z,106168.32
2023-05-19T11:23:43.078Z,104038.4
2023-05-19T11:24:43.157Z,114032.64
2023-05-19T11:25:43.317Z,114442.23
2023-05-19T11:26:43.462Z,113295.36
2023-05-19T11:27:43.584Z,107560.96
2023-05-19T11:28:43.741Z,99041.28
2023-05-19T11:29:43.904Z,101498.88
2023-05-19T11:30:44.038Z,78274.56
2023-05-19T11:31:44.231Z,50585.6
2023-05-19T11:32:44.395Z,46407.68
2023-05-19T11:33:44.461Z,41103.36
2023-05-19T11:34:44.628Z,39690.24
2023-05-19T11:35:44.761Z,49807.36
2023-05-19T11:36:44.910Z,59760.64
2023-05-19T11:37:45.058Z,62586.88
2023-05-19T11:38:45.236Z,62259.2
2023-05-19T11:39:45.355Z,56197.12
2023-05-19T11:40:45.497Z,53084.16
2023-05-19T11:41:45.661Z,57507.84
2023-05-19T11:42:45.823Z,56156.16
2023-05-19T11:43:45.969Z,72908.8
2023-05-19T11:44:46.125Z,75612.16
2023-05-19T11:45:46.322Z,77127.68
2023-05-19T11:46:46.406Z,82534.4
2023-05-19T11:48:01.087Z,89374.72
2023-05-19T11:48:46.759Z,90767.36
2023-05-19T11:49:46.825Z,94617.6
2023-05-19T11:50:46.990Z,96665.6
2023-05-19T11:51:47.126Z,98877.44
2023-05-19T11:52:47.228Z,91750.4
2023-05-19T11:53:47.373Z,78274.56
2023-05-19T11:54:47.550Z,61235.2
2023-05-19T11:55:48.037Z,40714.24
2023-05-19T11:56:47.830Z,28405.76
2023-05-19T11:57:56.103Z,28917.76
2023-05-19T11:58:48.094Z,37580.8
2023-05-19T11:59:48.350Z,41062.4
2023-05-19T12:00:48.393Z,63447.04
2023-05-19T12:01:48.542Z,56320
2023-05-19T12:02:48.755Z,73400.32
2023-05-19T12:03:48.989Z,73400.32
2023-05-19T12:04:49.066Z,73277.44
2023-05-19T12:05:49.737Z,73850.88
2023-05-19T12:06:49.288Z,78602.24
2023-05-19T12:07:49.452Z,86425.6
2023-05-19T12:08:49.597Z,92569.6
2023-05-19T12:09:49.726Z,98385.91
2023-05-19T12:10:49.867Z,100352
2023-05-19T12:11:50.002Z,103383.04
2023-05-19T12:12:50.114Z,105349.12
2023-05-19T12:13:50.267Z,107724.8
2023-05-19T12:14:50.405Z,106496
2023-05-19T12:15:50.598Z,101826.55